sensor_id;sensor_type;location;lat;lon;timestamp;pressure;altitude;pressure_sealevel;temperature
7882;BMP180;3986;41.884;23.466;2024-01-27T00:00:05;92317.00;;;-1.50
7882;BMP180;3986;41.884;23.466;2024-01-27T00:02:32;92325.00;;;-1.20
7882;BMP180;3986;41.884;23.466;2024-01-27T00:04:59;92331.00;;;-1.00
7882;BMP180;3986;41.884;23.466;2024-01-27T00:07:27;92339.00;;;-0.90
7882;BMP180;3986;41.884;23.466;2024-01-27T00:09:54;92336.00;;;-0.90
7882;BMP180;3986;41.884;23.466;2024-01-27T00:12:21;92344.00;;;-0.80
7882;BMP180;3986;41.884;23.466;2024-01-27T00:14:48;92340.00;;;-0.90
7882;BMP180;3986;41.884;23.466;2024-01-27T00:17:15;92350.00;;;-0.80
7882;BMP180;3986;41.884;23.466;2024-01-27T00:19:42;92347.00;;;-0.90
7882;BMP180;3986;41.884;23.466;2024-01-27T00:22:09;92355.00;;;-1.50
7882;BMP180;3986;41.884;23.466;2024-01-27T00:24:37;92344.00;;;-1.50
7882;BMP180;3986;41.884;23.466;2024-01-27T00:27:04;92375.00;;;-1.20
7882;BMP180;3986;41.884;23.466;2024-01-27T00:29:30;92356.00;;;-1.10
7882;BMP180;3986;41.884;23.466;2024-01-27T00:31:57;92345.00;;;-1.10
7882;BMP180;3986;41.884;23.466;2024-01-27T00:34:24;92338.00;;;-1.10
7882;BMP180;3986;41.884;23.466;2024-01-27T00:36:51;92342.00;;;-1.20
7882;BMP180;3986;41.884;23.466;2024-01-27T00:39:18;92211.00;;;-1.20
7882;BMP180;3986;41.884;23.466;2024-01-27T00:41:46;92344.00;;;-1.10
7882;BMP180;3986;41.884;23.466;2024-01-27T00:44:13;92319.00;;;-1.10
7882;BMP180;3986;41.884;23.466;2024-01-27T00:46:39;92356.00;;;-1.00
7882;BMP180;3986;41.884;23.466;2024-01-27T00:49:06;92351.00;;;-1.00
7882;BMP180;3986;41.884;23.466;2024-01-27T00:51:33;92345.00;;;-1.00
7882;BMP180;3986;41.884;23.466;2024-01-27T00:54:00;92334.00;;;-1.00
7882;BMP180;3986;41.884;23.466;2024-01-27T00:56:26;92339.00;;;-1.20
7882;BMP180;3986;41.884;23.466;2024-01-27T00:58:54;92340.00;;;-1.20
7882;BMP180;3986;41.884;23.466;2024-01-27T01:01:21;92348.00;;;-1.50
7882;BMP180;3986;41.884;23.466;2024-01-27T01:03:48;92338.00;;;-1.40
7882;BMP180;3986;41.884;23.466;2024-01-27T01:06:15;92333.00;;;-1.20
7882;BMP180;3986;41.884;23.466;2024-01-27T01:08:43;92324.00;;;-1.20
7882;BMP180;3986;41.884;23.466;2024-01-27T01:11:10;92336.00;;;-1.20
7882;BMP180;3986;41.884;23.466;2024-01-27T01:13:37;92327.00;;;-1.20
7882;BMP180;3986;41.884;23.466;2024-01-27T01:16:06;92319.00;;;-1.50
7882;BMP180;3986;41.884;23.466;2024-01-27T01:18:34;92320.00;;;-1.30
7882;BMP180;3986;41.884;23.466;2024-01-27T01:21:01;92345.00;;;-1.30
7882;BMP180;3986;41.884;23.466;2024-01-27T01:23:27;92356.00;;;-1.60
7882;BMP180;3986;41.884;23.466;2024-01-27T01:25:54;92338.00;;;-1.70
7882;BMP180;3986;41.884;23.466;2024-01-27T01:28:22;92344.00;;;-1.50
7882;BMP180;3986;41.884;23.466;2024-01-27T01:30:48;92326.00;;;-1.80
7882;BMP180;3986;41.884;23.466;2024-01-27T01:33:17;92329.00;;;-1.80
7882;BMP180;3986;41.884;23.466;2024-01-27T01:35:44;92324.00;;;-1.70
7882;BMP180;3986;41.884;23.466;2024-01-27T01:38:11;92312.00;;;-2.00
7882;BMP180;3986;41.884;23.466;2024-01-27T01:40:37;92321.00;;;-1.80
7882;BMP180;3986;41.884;23.466;2024-01-27T01:43:09;92302.00;;;-1.70
7882;BMP180;3986;41.884;23.466;2024-01-27T01:45:36;92294.00;;;-1.70
7882;BMP180;3986;41.884;23.466;2024-01-27T01:48:03;92308.00;;;-1.90
7882;BMP180;3986;41.884;23.466;2024-01-27T01:50:32;92284.00;;;-1.70
7882;BMP180;3986;41.884;23.466;2024-01-27T01:52:59;92286.00;;;-1.70
7882;BMP180;3986;41.884;23.466;2024-01-27T01:55:26;92287.00;;;-1.70
7882;BMP180;3986;41.884;23.466;2024-01-27T01:57:53;92289.00;;;-1.70
7882;BMP180;3986;41.884;23.466;2024-01-27T02:00:20;92282.00;;;-1.70
7882;BMP180;3986;41.884;23.466;2024-01-27T02:02:47;92276.00;;;-1.70
7882;BMP180;3986;41.884;23.466;2024-01-27T02:05:14;92286.00;;;-1.70
7882;BMP180;3986;41.884;23.466;2024-01-27T02:07:43;92282.00;;;-1.70
7882;BMP180;3986;41.884;23.466;2024-01-27T02:10:13;92297.00;;;-1.80
7882;BMP180;3986;41.884;23.466;2024-01-27T02:12:41;92282.00;;;-1.80
7882;BMP180;3986;41.884;23.466;2024-01-27T02:15:10;92273.00;;;-1.80
7882;BMP180;3986;41.884;23.466;2024-01-27T02:17:38;92289.00;;;-1.80
7882;BMP180;3986;41.884;23.466;2024-01-27T02:20:06;92279.00;;;-1.70
7882;BMP180;3986;41.884;23.466;2024-01-27T02:22:33;92286.00;;;-2.00
7882;BMP180;3986;41.884;23.466;2024-01-27T02:25:01;92277.00;;;-2.40
7882;BMP180;3986;41.884;23.466;2024-01-27T02:27:29;92274.00;;;-2.10
7882;BMP180;3986;41.884;23.466;2024-01-27T02:29:56;92289.00;;;-2.30
7882;BMP180;3986;41.884;23.466;2024-01-27T02:32:22;92286.00;;;-2.30
7882;BMP180;3986;41.884;23.466;2024-01-27T02:34:49;92275.00;;;-2.60
7882;BMP180;3986;41.884;23.466;2024-01-27T02:37:18;92316.00;;;-2.30
7882;BMP180;3986;41.884;23.466;2024-01-27T02:39:45;92293.00;;;-2.40
7882;BMP180;3986;41.884;23.466;2024-01-27T02:42:14;92273.00;;;-2.10
7882;BMP180;3986;41.884;23.466;2024-01-27T02:44:41;92300.00;;;-2.30
7882;BMP180;3986;41.884;23.466;2024-01-27T02:47:08;92295.00;;;-2.50
7882;BMP180;3986;41.884;23.466;2024-01-27T02:49:34;92286.00;;;-2.90
7882;BMP180;3986;41.884;23.466;2024-01-27T02:52:01;92291.00;;;-2.80
7882;BMP180;3986;41.884;23.466;2024-01-27T02:54:28;92271.00;;;-2.40
7882;BMP180;3986;41.884;23.466;2024-01-27T02:56:55;92273.00;;;-2.10
7882;BMP180;3986;41.884;23.466;2024-01-27T02:59:23;92255.00;;;-2.00
7882;BMP180;3986;41.884;23.466;2024-01-27T03:01:50;92265.00;;;-2.20
7882;BMP180;3986;41.884;23.466;2024-01-27T03:04:17;92258.00;;;-2.30
7882;BMP180;3986;41.884;23.466;2024-01-27T03:06:44;92270.00;;;-2.10
7882;BMP180;3986;41.884;23.466;2024-01-27T03:09:11;92254.00;;;-2.00
7882;BMP180;3986;41.884;23.466;2024-01-27T03:11:38;92241.00;;;-2.10
7882;BMP180;3986;41.884;23.466;2024-01-27T03:14:05;92265.00;;;-2.00
7882;BMP180;3986;41.884;23.466;2024-01-27T03:16:33;92264.00;;;-2.50
7882;BMP180;3986;41.884;23.466;2024-01-27T03:19:01;92239.00;;;-2.30
7882;BMP180;3986;41.884;23.466;2024-01-27T03:21:28;92256.00;;;-2.40
7882;BMP180;3986;41.884;23.466;2024-01-27T03:23:55;92260.00;;;-2.50
7882;BMP180;3986;41.884;23.466;2024-01-27T03:26:21;92267.00;;;-2.20
7882;BMP180;3986;41.884;23.466;2024-01-27T03:28:48;92268.00;;;-2.60
7882;BMP180;3986;41.884;23.466;2024-01-27T03:31:15;92277.00;;;-2.60
7882;BMP180;3986;41.884;23.466;2024-01-27T03:33:43;92259.00;;;-2.40
7882;BMP180;3986;41.884;23.466;2024-01-27T03:36:11;92284.00;;;-2.70
7882;BMP180;3986;41.884;23.466;2024-01-27T03:38:38;92267.00;;;-2.60
7882;BMP180;3986;41.884;23.466;2024-01-27T03:41:05;92271.00;;;-2.80
7882;BMP180;3986;41.884;23.466;2024-01-27T03:43:33;92277.00;;;-2.60
7882;BMP180;3986;41.884;23.466;2024-01-27T03:46:00;92269.00;;;-2.20
7882;BMP180;3986;41.884;23.466;2024-01-27T03:48:27;92271.00;;;-2.30
7882;BMP180;3986;41.884;23.466;2024-01-27T03:50:55;92254.00;;;-2.30
7882;BMP180;3986;41.884;23.466;2024-01-27T03:53:22;92253.00;;;-2.10
7882;BMP180;3986;41.884;23.466;2024-01-27T03:55:49;92250.00;;;-2.00
7882;BMP180;3986;41.884;23.466;2024-01-27T03:58:16;92259.00;;;-2.10
7882;BMP180;3986;41.884;23.466;2024-01-27T04:00:43;92249.00;;;-2.60
7882;BMP180;3986;41.884;23.466;2024-01-27T04:03:10;92258.00;;;-2.20
7882;BMP180;3986;41.884;23.466;2024-01-27T04:05:36;92266.00;;;-2.00
7882;BMP180;3986;41.884;23.466;2024-01-27T04:08:05;92244.00;;;-2.00
7882;BMP180;3986;41.884;23.466;2024-01-27T04:10:32;92269.00;;;-1.90
7882;BMP180;3986;41.884;23.466;2024-01-27T04:12:59;92246.00;;;-1.90
7882;BMP180;3986;41.884;23.466;2024-01-27T04:15:26;92248.00;;;-1.90
7882;BMP180;3986;41.884;23.466;2024-01-27T04:17:52;92253.00;;;-1.80
7882;BMP180;3986;41.884;23.466;2024-01-27T04:20:19;92223.00;;;-1.80
7882;BMP180;3986;41.884;23.466;2024-01-27T04:22:46;92238.00;;;-2.30
7882;BMP180;3986;41.884;23.466;2024-01-27T04:25:14;92233.00;;;-2.10
7882;BMP180;3986;41.884;23.466;2024-01-27T04:27:41;92246.00;;;-2.40
7882;BMP180;3986;41.884;23.466;2024-01-27T04:30:11;92241.00;;;-2.10
7882;BMP180;3986;41.884;23.466;2024-01-27T04:32:38;92224.00;;;-2.40
7882;BMP180;3986;41.884;23.466;2024-01-27T04:35:08;92238.00;;;-2.00
7882;BMP180;3986;41.884;23.466;2024-01-27T04:37:35;92250.00;;;-1.80
7882;BMP180;3986;41.884;23.466;2024-01-27T04:40:03;92231.00;;;-1.80
7882;BMP180;3986;41.884;23.466;2024-01-27T04:42:32;92235.00;;;-1.70
7882;BMP180;3986;41.884;23.466;2024-01-27T04:44:59;92228.00;;;-2.00
7882;BMP180;3986;41.884;23.466;2024-01-27T04:47:26;92236.00;;;-2.10
7882;BMP180;3986;41.884;23.466;2024-01-27T04:49:53;92226.00;;;-2.10
7882;BMP180;3986;41.884;23.466;2024-01-27T04:52:20;92238.00;;;-2.60
7882;BMP180;3986;41.884;23.466;2024-01-27T04:54:47;92229.00;;;-2.30
7882;BMP180;3986;41.884;23.466;2024-01-27T04:57:14;92236.00;;;-2.50
7882;BMP180;3986;41.884;23.466;2024-01-27T04:59:42;92239.00;;;-2.30
7882;BMP180;3986;41.884;23.466;2024-01-27T05:02:09;92225.00;;;-2.10
7882;BMP180;3986;41.884;23.466;2024-01-27T05:04:37;92233.00;;;-1.90
7882;BMP180;3986;41.884;23.466;2024-01-27T05:07:04;92220.00;;;-2.00
7882;BMP180;3986;41.884;23.466;2024-01-27T05:09:31;92224.00;;;-2.10
7882;BMP180;3986;41.884;23.466;2024-01-27T05:11:59;92219.00;;;-2.10
7882;BMP180;3986;41.884;23.466;2024-01-27T05:14:26;92212.00;;;-2.40
7882;BMP180;3986;41.884;23.466;2024-01-27T05:16:54;92230.00;;;-2.40
7882;BMP180;3986;41.884;23.466;2024-01-27T05:19:21;92219.00;;;-2.10
7882;BMP180;3986;41.884;23.466;2024-01-27T05:21:48;92238.00;;;-2.10
7882;BMP180;3986;41.884;23.466;2024-01-27T05:24:15;92249.00;;;-2.20
7882;BMP180;3986;41.884;23.466;2024-01-27T05:26:42;92216.00;;;-2.30
7882;BMP180;3986;41.884;23.466;2024-01-27T05:29:08;92214.00;;;-2.30
7882;BMP180;3986;41.884;23.466;2024-01-27T05:31:35;92249.00;;;-2.30
7882;BMP180;3986;41.884;23.466;2024-01-27T05:34:04;92215.00;;;-2.10
7882;BMP180;3986;41.884;23.466;2024-01-27T05:36:31;92224.00;;;-1.90
7882;BMP180;3986;41.884;23.466;2024-01-27T05:38:57;92227.00;;;-1.70
7882;BMP180;3986;41.884;23.466;2024-01-27T05:41:27;92222.00;;;-1.50
7882;BMP180;3986;41.884;23.466;2024-01-27T05:43:54;92228.00;;;-1.30
7882;BMP180;3986;41.884;23.466;2024-01-27T05:46:22;92213.00;;;-1.10
7882;BMP180;3986;41.884;23.466;2024-01-27T05:48:49;92210.00;;;-0.80
7882;BMP180;3986;41.884;23.466;2024-01-27T05:51:21;92225.00;;;-0.60
7882;BMP180;3986;41.884;23.466;2024-01-27T05:53:49;92225.00;;;-0.60
7882;BMP180;3986;41.884;23.466;2024-01-27T05:56:16;92255.00;;;-0.50
7882;BMP180;3986;41.884;23.466;2024-01-27T05:58:43;92252.00;;;-0.80
7882;BMP180;3986;41.884;23.466;2024-01-27T06:01:10;92251.00;;;-0.60
7882;BMP180;3986;41.884;23.466;2024-01-27T06:03:37;92255.00;;;-0.50
7882;BMP180;3986;41.884;23.466;2024-01-27T06:06:03;92241.00;;;-0.70
7882;BMP180;3986;41.884;23.466;2024-01-27T06:08:32;92263.00;;;-0.50
7882;BMP180;3986;41.884;23.466;2024-01-27T06:10:58;92270.00;;;-0.40
7882;BMP180;3986;41.884;23.466;2024-01-27T06:13:25;92228.00;;;-0.60
7882;BMP180;3986;41.884;23.466;2024-01-27T06:15:52;92264.00;;;-0.90
7882;BMP180;3986;41.884;23.466;2024-01-27T06:18:19;92265.00;;;-0.70
7882;BMP180;3986;41.884;23.466;2024-01-27T06:20:46;92265.00;;;-0.70
7882;BMP180;3986;41.884;23.466;2024-01-27T06:23:12;92278.00;;;-0.80
7882;BMP180;3986;41.884;23.466;2024-01-27T06:25:41;92276.00;;;-0.80
7882;BMP180;3986;41.884;23.466;2024-01-27T06:28:07;92278.00;;;-0.60
7882;BMP180;3986;41.884;23.466;2024-01-27T06:30:34;92278.00;;;-0.40
7882;BMP180;3986;41.884;23.466;2024-01-27T06:33:01;92289.00;;;-0.70
7882;BMP180;3986;41.884;23.466;2024-01-27T06:35:28;92278.00;;;-0.70
7882;BMP180;3986;41.884;23.466;2024-01-27T06:37:54;92297.00;;;-0.50
7882;BMP180;3986;41.884;23.466;2024-01-27T06:40:21;92293.00;;;-0.40
7882;BMP180;3986;41.884;23.466;2024-01-27T06:42:49;92303.00;;;-0.30
7882;BMP180;3986;41.884;23.466;2024-01-27T06:45:16;92292.00;;;-0.30
7882;BMP180;3986;41.884;23.466;2024-01-27T06:47:43;92315.00;;;-0.50
7882;BMP180;3986;41.884;23.466;2024-01-27T06:50:10;92300.00;;;-0.40
7882;BMP180;3986;41.884;23.466;2024-01-27T06:52:37;92291.00;;;-0.20
7882;BMP180;3986;41.884;23.466;2024-01-27T06:55:04;92284.00;;;-0.20
7882;BMP180;3986;41.884;23.466;2024-01-27T06:57:32;92308.00;;;-0.80
7882;BMP180;3986;41.884;23.466;2024-01-27T07:00:00;92294.00;;;-0.40
7882;BMP180;3986;41.884;23.466;2024-01-27T07:02:28;92296.00;;;-0.60
7882;BMP180;3986;41.884;23.466;2024-01-27T07:04:55;92307.00;;;-0.80
7882;BMP180;3986;41.884;23.466;2024-01-27T07:07:25;92287.00;;;-0.20
7882;BMP180;3986;41.884;23.466;2024-01-27T07:09:52;92310.00;;;-0.30
7882;BMP180;3986;41.884;23.466;2024-01-27T07:12:19;92292.00;;;-0.10
7882;BMP180;3986;41.884;23.466;2024-01-27T07:14:46;92299.00;;;0.10
7882;BMP180;3986;41.884;23.466;2024-01-27T07:17:14;92281.00;;;0.30
7882;BMP180;3986;41.884;23.466;2024-01-27T07:19:41;92286.00;;;0.20
7882;BMP180;3986;41.884;23.466;2024-01-27T07:22:08;92294.00;;;0.20
7882;BMP180;3986;41.884;23.466;2024-01-27T07:24:34;92288.00;;;0.10
7882;BMP180;3986;41.884;23.466;2024-01-27T07:27:02;92302.00;;;0.00
7882;BMP180;3986;41.884;23.466;2024-01-27T07:29:29;92282.00;;;0.40
7882;BMP180;3986;41.884;23.466;2024-01-27T07:31:56;92284.00;;;0.80
7882;BMP180;3986;41.884;23.466;2024-01-27T07:34:24;92309.00;;;0.70
7882;BMP180;3986;41.884;23.466;2024-01-27T07:36:51;92291.00;;;0.80
7882;BMP180;3986;41.884;23.466;2024-01-27T07:39:18;92304.00;;;0.40
7882;BMP180;3986;41.884;23.466;2024-01-27T07:41:44;92315.00;;;0.40
7882;BMP180;3986;41.884;23.466;2024-01-27T07:44:13;92308.00;;;0.60
7882;BMP180;3986;41.884;23.466;2024-01-27T07:46:40;92307.00;;;0.60
7882;BMP180;3986;41.884;23.466;2024-01-27T07:49:08;92306.00;;;0.70
7882;BMP180;3986;41.884;23.466;2024-01-27T07:51:36;92300.00;;;1.00
7882;BMP180;3986;41.884;23.466;2024-01-27T07:54:03;92310.00;;;0.80
7882;BMP180;3986;41.884;23.466;2024-01-27T07:56:30;92155.00;;;0.70
7882;BMP180;3986;41.884;23.466;2024-01-27T07:58:56;92303.00;;;0.20
7882;BMP180;3986;41.884;23.466;2024-01-27T08:01:23;92313.00;;;0.60
7882;BMP180;3986;41.884;23.466;2024-01-27T08:03:50;92312.00;;;1.00
7882;BMP180;3986;41.884;23.466;2024-01-27T08:06:18;92291.00;;;1.20
7882;BMP180;3986;41.884;23.466;2024-01-27T08:08:47;92306.00;;;1.20
7882;BMP180;3986;41.884;23.466;2024-01-27T08:11:15;92283.00;;;1.40
7882;BMP180;3986;41.884;23.466;2024-01-27T08:13:43;92261.00;;;1.30
7882;BMP180;3986;41.884;23.466;2024-01-27T08:16:10;92251.00;;;1.70
7882;BMP180;3986;41.884;23.466;2024-01-27T08:18:38;92239.00;;;1.90
7882;BMP180;3986;41.884;23.466;2024-01-27T08:21:08;92233.00;;;2.50
7882;BMP180;3986;41.884;23.466;2024-01-27T08:23:34;92246.00;;;2.80
7882;BMP180;3986;41.884;23.466;2024-01-27T08:26:03;92241.00;;;3.20
7882;BMP180;3986;41.884;23.466;2024-01-27T08:28:31;92250.00;;;4.00
7882;BMP180;3986;41.884;23.466;2024-01-27T08:30:58;92264.00;;;5.10
7882;BMP180;3986;41.884;23.466;2024-01-27T08:33:27;92246.00;;;4.90
7882;BMP180;3986;41.884;23.466;2024-01-27T08:35:54;92242.00;;;4.70
7882;BMP180;3986;41.884;23.466;2024-01-27T08:38:21;92263.00;;;5.00
7882;BMP180;3986;41.884;23.466;2024-01-27T08:40:48;92241.00;;;5.60
7882;BMP180;3986;41.884;23.466;2024-01-27T08:43:16;92258.00;;;5.90
7882;BMP180;3986;41.884;23.466;2024-01-27T08:45:43;92238.00;;;6.20
7882;BMP180;3986;41.884;23.466;2024-01-27T08:48:10;92238.00;;;6.60
7882;BMP180;3986;41.884;23.466;2024-01-27T08:50:38;92238.00;;;6.70
7882;BMP180;3986;41.884;23.466;2024-01-27T08:53:05;92238.00;;;7.10
7882;BMP180;3986;41.884;23.466;2024-01-27T08:55:32;92248.00;;;7.70
7882;BMP180;3986;41.884;23.466;2024-01-27T08:57:58;92254.00;;;7.90
7882;BMP180;3986;41.884;23.466;2024-01-27T09:00:27;92259.00;;;8.00
7882;BMP180;3986;41.884;23.466;2024-01-27T09:02:54;92275.00;;;7.30
7882;BMP180;3986;41.884;23.466;2024-01-27T09:05:21;92254.00;;;6.10
7882;BMP180;3986;41.884;23.466;2024-01-27T09:07:48;92255.00;;;6.10
7882;BMP180;3986;41.884;23.466;2024-01-27T09:10:15;92263.00;;;5.50
7882;BMP180;3986;41.884;23.466;2024-01-27T09:12:42;92255.00;;;5.90
7882;BMP180;3986;41.884;23.466;2024-01-27T09:15:09;92285.00;;;5.20
7882;BMP180;3986;41.884;23.466;2024-01-27T09:17:38;92307.00;;;5.40
7882;BMP180;3986;41.884;23.466;2024-01-27T09:20:06;92313.00;;;5.70
7882;BMP180;3986;41.884;23.466;2024-01-27T09:22:33;92316.00;;;6.50
7882;BMP180;3986;41.884;23.466;2024-01-27T09:25:00;92328.00;;;7.00
7882;BMP180;3986;41.884;23.466;2024-01-27T09:27:27;92316.00;;;5.60
7882;BMP180;3986;41.884;23.466;2024-01-27T09:29:54;92319.00;;;5.30
7882;BMP180;3986;41.884;23.466;2024-01-27T09:32:21;92305.00;;;5.80
7882;BMP180;3986;41.884;23.466;2024-01-27T09:34:49;92312.00;;;8.10
7882;BMP180;3986;41.884;23.466;2024-01-27T09:37:18;92315.00;;;7.80
7882;BMP180;3986;41.884;23.466;2024-01-27T09:39:45;92315.00;;;9.10
7882;BMP180;3986;41.884;23.466;2024-01-27T09:42:13;92334.00;;;10.70
7882;BMP180;3986;41.884;23.466;2024-01-27T09:44:43;92335.00;;;10.50
7882;BMP180;3986;41.884;23.466;2024-01-27T09:47:11;92346.00;;;8.40
7882;BMP180;3986;41.884;23.466;2024-01-27T09:49:39;92353.00;;;8.50
7882;BMP180;3986;41.884;23.466;2024-01-27T09:52:09;92333.00;;;9.00
7882;BMP180;3986;41.884;23.466;2024-01-27T09:54:36;92321.00;;;8.50
7882;BMP180;3986;41.884;23.466;2024-01-27T09:57:03;92309.00;;;9.00
7882;BMP180;3986;41.884;23.466;2024-01-27T09:59:32;92287.00;;;8.40
7882;BMP180;3986;41.884;23.466;2024-01-27T10:02:00;92297.00;;;9.70
7882;BMP180;3986;41.884;23.466;2024-01-27T10:04:29;92291.00;;;10.00
7882;BMP180;3986;41.884;23.466;2024-01-27T10:06:58;92300.00;;;9.80
7882;BMP180;3986;41.884;23.466;2024-01-27T10:09:26;92297.00;;;8.00
7882;BMP180;3986;41.884;23.466;2024-01-27T10:11:54;92299.00;;;8.60
7882;BMP180;3986;41.884;23.466;2024-01-27T10:14:22;92333.00;;;8.50
7882;BMP180;3986;41.884;23.466;2024-01-27T10:16:49;92314.00;;;9.40
7882;BMP180;3986;41.884;23.466;2024-01-27T10:19:17;92315.00;;;9.90
7882;BMP180;3986;41.884;23.466;2024-01-27T10:21:47;92309.00;;;8.80
7882;BMP180;3986;41.884;23.466;2024-01-27T10:24:14;92299.00;;;8.50
7882;BMP180;3986;41.884;23.466;2024-01-27T10:26:48;92312.00;;;9.10
7882;BMP180;3986;41.884;23.466;2024-01-27T10:29:20;92202.00;;;9.30
7882;BMP180;3986;41.884;23.466;2024-01-27T10:31:54;92309.00;;;9.40
7882;BMP180;3986;41.884;23.466;2024-01-27T10:34:24;92300.00;;;9.00
7882;BMP180;3986;41.884;23.466;2024-01-27T10:36:51;92303.00;;;7.70
7882;BMP180;3986;41.884;23.466;2024-01-27T10:39:34;92304.00;;;7.50
7882;BMP180;3986;41.884;23.466;2024-01-27T10:42:08;92278.00;;;8.30
7882;BMP180;3986;41.884;23.466;2024-01-27T10:44:40;92293.00;;;7.90
7882;BMP180;3986;41.884;23.466;2024-01-27T10:47:25;92298.00;;;7.60
7882;BMP180;3986;41.884;23.466;2024-01-27T10:50:01;92279.00;;;7.80
7882;BMP180;3986;41.884;23.466;2024-01-27T10:52:32;92285.00;;;8.10
7882;BMP180;3986;41.884;23.466;2024-01-27T10:55:03;92292.00;;;8.10
7882;BMP180;3986;41.884;23.466;2024-01-27T10:57:36;92287.00;;;8.30
7882;BMP180;3986;41.884;23.466;2024-01-27T11:00:07;92292.00;;;7.20
7882;BMP180;3986;41.884;23.466;2024-01-27T11:02:41;92288.00;;;5.90
7882;BMP180;3986;41.884;23.466;2024-01-27T11:05:12;92271.00;;;6.50
7882;BMP180;3986;41.884;23.466;2024-01-27T11:07:55;92287.00;;;6.50
7882;BMP180;3986;41.884;23.466;2024-01-27T11:10:24;92300.00;;;6.80
7882;BMP180;3986;41.884;23.466;2024-01-27T11:12:54;92311.00;;;6.80
7882;BMP180;3986;41.884;23.466;2024-01-27T11:15:22;92307.00;;;7.00
7882;BMP180;3986;41.884;23.466;2024-01-27T11:17:57;92319.00;;;6.00
7882;BMP180;3986;41.884;23.466;2024-01-27T11:20:31;92322.00;;;5.70
7882;BMP180;3986;41.884;23.466;2024-01-27T11:23:32;92314.00;;;5.60
7882;BMP180;3986;41.884;23.466;2024-01-27T11:26:09;92305.00;;;6.00
7882;BMP180;3986;41.884;23.466;2024-01-27T11:28:47;92318.00;;;5.90
7882;BMP180;3986;41.884;23.466;2024-01-27T11:31:17;92304.00;;;6.00
7882;BMP180;3986;41.884;23.466;2024-01-27T11:33:47;92307.00;;;6.30
7882;BMP180;3986;41.884;23.466;2024-01-27T11:36:20;92317.00;;;6.30
7882;BMP180;3986;41.884;23.466;2024-01-27T11:38:49;92153.00;;;6.40
7882;BMP180;3986;41.884;23.466;2024-01-27T11:41:26;92317.00;;;6.30
7882;BMP180;3986;41.884;23.466;2024-01-27T11:44:03;92315.00;;;6.10
7882;BMP180;3986;41.884;23.466;2024-01-27T11:46:33;92314.00;;;7.20
7882;BMP180;3986;41.884;23.466;2024-01-27T11:49:03;92337.00;;;6.70
7882;BMP180;3986;41.884;23.466;2024-01-27T11:51:31;92318.00;;;5.50
7882;BMP180;3986;41.884;23.466;2024-01-27T11:53:59;92346.00;;;5.90
7882;BMP180;3986;41.884;23.466;2024-01-27T11:56:30;92344.00;;;5.40
7882;BMP180;3986;41.884;23.466;2024-01-27T11:59:03;92330.00;;;5.30
7882;BMP180;3986;41.884;23.466;2024-01-27T12:01:33;92331.00;;;5.30
7882;BMP180;3986;41.884;23.466;2024-01-27T12:04:09;92366.00;;;5.10
7882;BMP180;3986;41.884;23.466;2024-01-27T12:06:36;92209.00;;;4.60
7882;BMP180;3986;41.884;23.466;2024-01-27T12:09:06;92332.00;;;4.40
7882;BMP180;3986;41.884;23.466;2024-01-27T12:11:38;92333.00;;;4.20
7882;BMP180;3986;41.884;23.466;2024-01-27T12:14:07;92336.00;;;4.30
7882;BMP180;3986;41.884;23.466;2024-01-27T12:16:34;92333.00;;;4.10
7882;BMP180;3986;41.884;23.466;2024-01-27T12:19:01;92344.00;;;4.10
7882;BMP180;3986;41.884;23.466;2024-01-27T12:21:28;92340.00;;;4.00
7882;BMP180;3986;41.884;23.466;2024-01-27T12:23:56;92344.00;;;3.90
7882;BMP180;3986;41.884;23.466;2024-01-27T12:26:26;92326.00;;;4.70
7882;BMP180;3986;41.884;23.466;2024-01-27T12:28:54;92326.00;;;4.30
7882;BMP180;3986;41.884;23.466;2024-01-27T12:31:23;92304.00;;;4.10
7882;BMP180;3986;41.884;23.466;2024-01-27T12:33:51;92319.00;;;4.00
7882;BMP180;3986;41.884;23.466;2024-01-27T12:36:19;92311.00;;;3.90
7882;BMP180;3986;41.884;23.466;2024-01-27T12:38:52;92321.00;;;4.30
7882;BMP180;3986;41.884;23.466;2024-01-27T12:41:19;92323.00;;;4.70
7882;BMP180;3986;41.884;23.466;2024-01-27T12:43:46;92318.00;;;5.40
7882;BMP180;3986;41.884;23.466;2024-01-27T12:46:13;92313.00;;;5.80
7882;BMP180;3986;41.884;23.466;2024-01-27T12:48:42;92333.00;;;5.30
7882;BMP180;3986;41.884;23.466;2024-01-27T12:51:09;92325.00;;;5.60
7882;BMP180;3986;41.884;23.466;2024-01-27T12:53:37;92335.00;;;5.30
7882;BMP180;3986;41.884;23.466;2024-01-27T12:56:07;92340.00;;;5.70
7882;BMP180;3986;41.884;23.466;2024-01-27T12:58:34;92325.00;;;6.40
7882;BMP180;3986;41.884;23.466;2024-01-27T13:01:01;92339.00;;;6.40
7882;BMP180;3986;41.884;23.466;2024-01-27T13:03:28;92334.00;;;6.70
7882;BMP180;3986;41.884;23.466;2024-01-27T13:05:56;92333.00;;;6.90
7882;BMP180;3986;41.884;23.466;2024-01-27T13:08:23;92231.00;;;6.90
7882;BMP180;3986;41.884;23.466;2024-01-27T13:10:51;92333.00;;;7.20
7882;BMP180;3986;41.884;23.466;2024-01-27T13:13:18;92344.00;;;7.20
7882;BMP180;3986;41.884;23.466;2024-01-27T13:15:46;92322.00;;;6.80
7882;BMP180;3986;41.884;23.466;2024-01-27T13:18:13;92314.00;;;7.10
7882;BMP180;3986;41.884;23.466;2024-01-27T13:20:40;92316.00;;;6.90
7882;BMP180;3986;41.884;23.466;2024-01-27T13:23:08;92309.00;;;7.60
7882;BMP180;3986;41.884;23.466;2024-01-27T13:25:35;92324.00;;;6.80
7882;BMP180;3986;41.884;23.466;2024-01-27T13:28:02;92300.00;;;7.20
7882;BMP180;3986;41.884;23.466;2024-01-27T13:30:29;92329.00;;;7.20
7882;BMP180;3986;41.884;23.466;2024-01-27T13:32:56;92313.00;;;7.10
7882;BMP180;3986;41.884;23.466;2024-01-27T13:35:23;92325.00;;;7.40
7882;BMP180;3986;41.884;23.466;2024-01-27T13:37:51;92331.00;;;7.10
7882;BMP180;3986;41.884;23.466;2024-01-27T13:40:19;92327.00;;;6.50
7882;BMP180;3986;41.884;23.466;2024-01-27T13:42:46;92318.00;;;6.70
7882;BMP180;3986;41.884;23.466;2024-01-27T13:45:13;92323.00;;;6.20
7882;BMP180;3986;41.884;23.466;2024-01-27T13:47:40;92325.00;;;6.60
7882;BMP180;3986;41.884;23.466;2024-01-27T13:50:08;92200.00;;;6.30
7882;BMP180;3986;41.884;23.466;2024-01-27T13:52:35;92336.00;;;5.80
7882;BMP180;3986;41.884;23.466;2024-01-27T13:55:03;92323.00;;;6.10
7882;BMP180;3986;41.884;23.466;2024-01-27T13:57:31;92312.00;;;6.10
7882;BMP180;3986;41.884;23.466;2024-01-27T13:59:57;92317.00;;;6.00
7882;BMP180;3986;41.884;23.466;2024-01-27T14:02:24;92319.00;;;6.30
7882;BMP180;3986;41.884;23.466;2024-01-27T14:04:51;92319.00;;;5.90
7882;BMP180;3986;41.884;23.466;2024-01-27T14:07:18;92331.00;;;5.90
7882;BMP180;3986;41.884;23.466;2024-01-27T14:09:45;92320.00;;;5.90
7882;BMP180;3986;41.884;23.466;2024-01-27T14:12:13;92324.00;;;5.80
7882;BMP180;3986;41.884;23.466;2024-01-27T14:14:42;92316.00;;;6.30
7882;BMP180;3986;41.884;23.466;2024-01-27T14:17:09;92313.00;;;6.00
7882;BMP180;3986;41.884;23.466;2024-01-27T14:19:35;92321.00;;;6.20
7882;BMP180;3986;41.884;23.466;2024-01-27T14:22:03;92303.00;;;5.80
7882;BMP180;3986;41.884;23.466;2024-01-27T14:24:31;92315.00;;;5.70
7882;BMP180;3986;41.884;23.466;2024-01-27T14:27:00;92307.00;;;5.40
7882;BMP180;3986;41.884;23.466;2024-01-27T14:29:26;92334.00;;;5.80
7882;BMP180;3986;41.884;23.466;2024-01-27T14:31:55;92339.00;;;5.60